logo
Rechercher aéroport 
image banner adimage banner adimage banner ad
image banner ad

EHKG - K6-D (Oil Platform)

Situé à , Netherlands

ICAO - , IATA -

Données fournies par Airmate  

Information générale

Coordonnées: N53°40'30" E3°49'42"
Élévation : feet MSL.
 
Voir autres Aéroports à Noord-Holland

Données opérationnelles

Special qualification required
Heure actuelle UTC:
Heure actuelle locale:
Météo à : EHKV - K14-Fa-1C (Oil Platform) ( 47 km )
METAR: EHKV 152125Z AUTO 09020KT 9999 NSC 17/16 Q1008
Voir NOTAMs / SUP AIP / TFR affectant cet aéroport [VIEW]
Fréquences de communication: [VIEW]

Pistes:

Coordonnées de l'aéroport

Adresse: Netherlands

Vue satellite de EHKG